This is the latest recevied weather packets stored in our database for station/object XE2KK-10. If no packets are shown the sender has not sent any weather packets the latest 10 day(s).
| Time | Temp. | Humidity | Pressure | Rain* | Wind** | Luminosity | Snow |
|---|---|---|---|---|---|---|---|
| 1777957453 | 25° C | 62% | 1010 hPa | 0 mm | - | 0 W/m² | - |
| 1777957153 | 25° C | 61% | 1010 hPa | 0 mm | - | 0 W/m² | - |
| 1777956853 | 25.56° C | 61% | 1009.8 hPa | 0 mm | - | 0 W/m² | - |
| 1777956552 | 25.56° C | 60% | 1010 hPa | 0 mm | - | 0 W/m² | - |
| 1777956252 | 25.56° C | 59% | 1010.1 hPa | 0 mm | - | 0 W/m² | - |
| 1777955953 | 25.56° C | 58% | 1010 hPa | 0 mm | - | 0 W/m² | - |
| 1777955653 | 26.11° C | 58% | 1010.1 hPa | 0 mm | - | 0 W/m² | - |
| 1777955353 | 25.56° C | 58% | 1010.2 hPa | 0 mm | - | 0 W/m² | - |
| 1777955053 | 26.11° C | 58% | 1010 hPa | 0 mm | - | 0 W/m² | - |
| 1777954752 | 26.11° C | 58% | 1010 hPa | 0 mm | - | 0 W/m² | - |
| 1777954452 | 26.11° C | 58% | 1009.9 hPa | 0 mm | - | 0 W/m² | - |
| 1777954153 | 26.11° C | 57% | 1010 hPa | 0 mm | - | 0 W/m² | - |
| 1777953853 | 26.11° C | 57% | 1010 hPa | 0 mm | - | 0 W/m² | - |
| 1777953553 | 26.11° C | 57% | 1009.9 hPa | 0 mm | - | 0 W/m² | - |
| 1777943652 | 28.89° C | 44% | 1009.2 hPa | 0 mm | - | 4 W/m² | - |
| 1777941553 | 30° C | 41% | 1008.9 hPa | 0 mm | - | 47 W/m² | - |
| 1777940353 | 30° C | 40% | 1008.8 hPa | 0 mm | - | 75 W/m² | - |
| 1777940053 | 30.56° C | 40% | 1009.1 hPa | 0 mm | - | 79 W/m² | - |
| 1777939753 | 30.56° C | 40% | 1009 hPa | 0 mm | - | 92 W/m² | - |
| 1777938553 | 30.56° C | 40% | 1009.2 hPa | 0 mm | - | 121 W/m² | - |
| 1777938253 | 30.56° C | 40% | 1009.2 hPa | 0 mm | - | 113 W/m² | - |
| 1777934653 | 31.11° C | 39% | 1009.8 hPa | 0 mm | - | 336 W/m² | - |
| 1777934353 | 30.56° C | 40% | 1009.7 hPa | 0 mm | - | 306 W/m² | - |
| 1777933153 | 30.56° C | 40% | 1009.9 hPa | 0 mm | - | 451 W/m² | - |
| 1777932553 | 30.56° C | 40% | 1009.9 hPa | 0 mm | - | 262 W/m² | - |
* Rain latest hour (hover to see other rain measurements)
** Current wind speed in m/s (hover to see current wind gust speed)